Time;durP1;ratioP1;P1;durP2;ratioP2;P2;SDS_P1;SDS_P2;PMS_P1;PMS_P2;Temp;Humidity;BMP_temperature;BMP_pressure;BME280_temperature;BME280_humidity;BME280_pressure;Samples;Min_cycle;Max_cycle;Signal;HPM_P1;HPM_P2
2023/03/03 00:02:24;;;;;;;;;;;;;;;18.03;64.92;101621.62;2176195;81;51745;-75
2023/03/03 00:05:25;;;;;;;;;;;;;;;17.99;65.43;101623.78;2212576;79;50483;-76
2023/03/03 00:08:27;;;;;;;;;;;;;;;17.93;65.56;101633.78;2193663;81;50427;-76
2023/03/03 00:11:28;;;;;;;;;;;;;;;17.95;65.38;101637.63;2210246;78;50436;-75
2023/03/03 00:14:31;;;;;;;;;;;;;;;18.03;65.07;101645.72;2184181;81;50343;-75
2023/03/03 00:17:33;;;;;;;;;;;;;;;18.05;64.88;101648.59;2184232;81;50752;-75
2023/03/03 00:20:35;;;;;;;;;;;;;;;18.06;64.82;101647.61;2184050;81;51585;-75
2023/03/03 00:23:39;;;;;;;;;;;;;;;18.04;64.99;101649.59;2184231;81;51528;-76
2023/03/03 00:26:41;;;;;;;;;;;;;;;18.02;65.09;101638.19;2175369;81;51131;-76
2023/03/03 00:29:46;;;;;;;;;;;;;;;18.00;65.11;101646.03;2202444;78;51596;-76
2023/03/03 00:32:52;;;;;;;;;;;;;;;17.98;65.35;101636.84;2166054;82;51538;-75
2023/03/03 00:35:51;;;;;;;;;;;;;;;17.95;65.47;101623.73;2194736;80;21576;-76
2023/03/03 00:38:52;;;;;;;;;;;;;;;18.01;65.58;101617.77;2176674;81;51642;-75
2023/03/03 00:41:54;;;;;;;;;;;;;;;17.92;65.92;101617.86;2172631;82;51628;-76
2023/03/03 00:44:56;;;;;;;;;;;;;;;17.92;65.74;101616.52;2172889;82;50468;-76
2023/03/03 00:47:58;;;;;;;;;;;;;;;17.94;65.59;101623.91;2172382;82;51474;-76
2023/03/03 00:51:00;;;;;;;;;;;;;;;18.01;65.25;101629.83;2196058;80;52430;-75
2023/03/03 00:54:01;;;;;;;;;;;;;;;18.03;64.99;101613.11;2172721;82;51506;-75
2023/03/03 00:57:03;;;;;;;;;;;;;;;18.04;64.96;101614.78;2172666;81;50430;-76
2023/03/03 01:00:05;;;;;;;;;;;;;;;18.03;65.12;101614.45;2200609;79;50719;-73
2023/03/03 01:03:07;;;;;;;;;;;;;;;18.02;65.29;101610.58;2185649;80;50960;-75
2023/03/03 01:06:09;;;;;;;;;;;;;;;18.00;65.14;101607.20;2184171;81;51503;-76
2023/03/03 01:09:11;;;;;;;;;;;;;;;17.97;65.21;101611.03;2209532;80;50696;-75
2023/03/03 01:12:12;;;;;;;;;;;;;;;17.95;65.30;101607.66;2184267;81;50722;-75
2023/03/03 01:15:14;;;;;;;;;;;;;;;17.94;65.71;101603.83;2209563;80;52465;-75
2023/03/03 01:18:15;;;;;;;;;;;;;;;17.84;65.91;101601.23;2184196;81;50380;-75
2023/03/03 01:21:17;;;;;;;;;;;;;;;17.83;66.04;101606.25;2184001;81;50711;-74
2023/03/03 01:24:19;;;;;;;;;;;;;;;17.86;65.81;101602.42;2183404;81;51547;-75
2023/03/03 01:27:20;;;;;;;;;;;;;;;17.91;65.63;101596.94;2158408;81;51007;-76
2023/03/03 01:30:22;;;;;;;;;;;;;;;17.99;65.35;101598.34;2200399;79;51460;-75
2023/03/03 01:33:23;;;;;;;;;;;;;;;18.05;65.14;101600.38;2184214;81;51493;-76
2023/03/03 01:36:25;;;;;;;;;;;;;;;18.10;64.86;101596.41;2184233;81;51516;-76
2023/03/03 01:39:27;;;;;;;;;;;;;;;18.11;64.73;101583.34;2209535;78;51581;-75
2023/03/03 01:42:29;;;;;;;;;;;;;;;18.10;64.79;101581.67;2209676;80;51406;-75
2023/03/03 01:45:31;;;;;;;;;;;;;;;18.06;64.80;101578.48;2209755;79;51153;-75
2023/03/03 01:48:34;;;;;;;;;;;;;;;18.05;65.00;101575.44;2184261;81;51476;-75
2023/03/03 01:51:36;;;;;;;;;;;;;;;18.02;65.03;101571.74;2209627;80;51209;-75
2023/03/03 01:54:40;;;;;;;;;;;;;;;17.99;65.13;101568.87;2184196;81;51554;-75
2023/03/03 01:57:43;;;;;;;;;;;;;;;17.94;65.50;101572.52;2175817;80;50721;-75
2023/03/03 02:00:45;;;;;;;;;;;;;;;17.87;65.90;101563.43;2151832;82;50420;-75
2023/03/03 02:03:47;;;;;;;;;;;;;;;17.83;65.94;101564.25;2152195;82;52333;-76
2023/03/03 02:06:50;;;;;;;;;;;;;;;17.87;65.85;101574.14;2150351;82;51573;-75
2023/03/03 02:10:09;;;;;;;;;;;;;;;17.96;65.54;101566.52;2150361;81;51507;-75
2023/03/03 02:13:10;;;;;;;;;;;;;;;18.01;65.22;101569.57;2150568;83;50419;-75
2023/03/03 02:16:12;;;;;;;;;;;;;;;18.03;65.13;101572.08;2173601;80;51180;-75
2023/03/03 02:19:15;;;;;;;;;;;;;;;18.02;65.17;101583.29;2150254;83;51547;-75
2023/03/03 02:22:17;;;;;;;;;;;;;;;18.01;65.22;101584.30;2150892;81;51484;-76
2023/03/03 02:25:20;;;;;;;;;;;;;;;17.98;65.21;101580.60;2150459;82;51559;-76
2023/03/03 02:28:26;;;;;;;;;;;;;;;17.96;65.42;101577.73;2163786;80;52438;-75
2023/03/03 02:31:28;;;;;;;;;;;;;;;17.93;65.52;101584.25;2181078;81;50757;-75
2023/03/03 02:34:30;;;;;;;;;;;;;;;17.87;65.83;101585.35;2184193;80;51484;-75
2023/03/03 02:37:31;;;;;;;;;;;;;;;17.82;66.03;101585.81;2184173;81;51461;-76
2023/03/03 02:40:34;;;;;;;;;;;;;;;17.83;65.88;101587.01;2209505;78;51141;-75
2023/03/03 02:43:40;;;;;;;;;;;;;;;17.87;65.77;101580.83;2184170;81;51566;-75
2023/03/03 02:46:42;;;;;;;;;;;;;;;17.98;65.45;101575.72;2183479;80;51456;-76
2023/03/03 02:49:44;;;;;;;;;;;;;;;18.03;65.08;101578.30;2184063;81;50722;-75
2023/03/03 02:52:45;;;;;;;;;;;;;;;18.05;64.93;101578.95;2185491;81;51114;-75
2023/03/03 02:55:47;;;;;;;;;;;;;;;18.05;64.90;101585.65;2209640;80;50686;-75
2023/03/03 02:58:49;;;;;;;;;;;;;;;18.05;64.95;101583.47;2172121;81;50427;-76
2023/03/03 03:01:50;;;;;;;;;;;;;;;18.03;64.97;101574.28;2209419;80;50456;-76
2023/03/03 03:04:52;;;;;;;;;;;;;;;18.00;65.02;101574.56;2209553;80;51144;-76
2023/03/03 03:07:53;;;;;;;;;;;;;;;17.99;65.14;101576.08;2184055;81;50408;-76
2023/03/03 03:10:56;;;;;;;;;;;;;;;17.96;65.23;101589.79;2209355;80;50433;-76
2023/03/03 03:13:57;;;;;;;;;;;;;;;17.87;65.64;101586.19;2184134;81;51910;-75
2023/03/03 03:17:00;;;;;;;;;;;;;;;17.84;65.75;101589.18;2184076;81;50413;-75
2023/03/03 03:20:01;;;;;;;;;;;;;;;17.84;65.79;101585.16;2183938;81;51538;-75
2023/03/03 03:23:03;;;;;;;;;;;;;;;17.87;65.56;101590.20;2209665;80;51402;-74
2023/03/03 03:26:05;;;;;;;;;;;;;;;17.96;65.40;101611.21;2184089;81;51476;-75
2023/03/03 03:29:06;;;;;;;;;;;;;;;18.01;65.16;101613.76;2187168;79;52284;-75
2023/03/03 03:32:08;;;;;;;;;;;;;;;18.05;64.97;101609.75;2173432;81;51597;-75
2023/03/03 03:35:10;;;;;;;;;;;;;;;18.05;64.85;101609.75;2173475;81;50361;-75
2023/03/03 03:38:12;;;;;;;;;;;;;;;18.05;64.87;101605.73;2150255;82;51473;-75
2023/03/03 03:41:13;;;;;;;;;;;;;;;18.04;64.88;101609.42;2152227;82;51694;-76
2023/03/03 03:44:15;;;;;;;;;;;;;;;18.01;65.02;101611.08;2150281;82;50453;-76
2023/03/03 03:47:16;;;;;;;;;;;;;;;17.97;65.05;101619.07;2173468;81;50703;-76
2023/03/03 03:50:18;;;;;;;;;;;;;;;17.96;65.22;101613.38;2173398;80;52152;-76
2023/03/03 03:53:20;;;;;;;;;;;;;;;17.93;65.35;101599.44;2150488;82;50520;-76
2023/03/03 03:56:21;;;;;;;;;;;;;;;17.87;65.68;101600.08;2173872;81;50443;-75
2023/03/03 03:59:23;;;;;;;;;;;;;;;17.81;65.85;101597.02;2167656;81;50369;-76
2023/03/03 04:02:24;;;;;;;;;;;;;;;17.85;65.68;101600.22;2150415;83;50738;-76
2023/03/03 04:05:26;;;;;;;;;;;;;;;17.90;65.49;101592.56;2151949;82;52462;-76
2023/03/03 04:08:27;;;;;;;;;;;;;;;17.99;65.25;101580.09;2173000;81;50752;-76
2023/03/03 04:11:29;;;;;;;;;;;;;;;18.05;64.99;101591.51;2150304;82;51550;-77
2023/03/03 04:14:31;;;;;;;;;;;;;;;18.05;64.86;101580.30;2150608;82;51455;-76
2023/03/03 04:17:32;;;;;;;;;;;;;;;18.04;64.86;101577.28;2152314;82;49572;-76
2023/03/03 04:20:34;;;;;;;;;;;;;;;18.02;64.86;101573.91;2150422;83;50438;-76
2023/03/03 04:23:35;;;;;;;;;;;;;;;18.00;64.95;101571.05;2173435;81;50404;-76
2023/03/03 04:26:37;;;;;;;;;;;;;;;17.97;65.08;101572.71;2150562;82;50518;-76
2023/03/03 04:29:39;;;;;;;;;;;;;;;17.95;65.07;101579.55;2184232;81;51151;-76
2023/03/03 04:32:40;;;;;;;;;;;;;;;17.89;65.37;101570.81;2185597;80;50130;-76
2023/03/03 04:35:42;;;;;;;;;;;;;;;17.81;65.72;101570.76;2184220;81;50425;-76
2023/03/03 04:38:43;;;;;;;;;;;;;;;17.80;65.65;101577.09;2184110;81;50249;-76
2023/03/03 04:41:45;;;;;;;;;;;;;;;17.86;65.46;101568.45;2185484;80;51639;-77
2023/03/03 04:44:46;;;;;;;;;;;;;;;17.95;65.16;101567.50;2184144;80;51519;-76
2023/03/03 04:47:48;;;;;;;;;;;;;;;17.99;64.94;101571.56;2184225;80;50723;-76
2023/03/03 04:50:50;;;;;;;;;;;;;;;17.99;64.87;101565.37;2183852;81;51480;-76
2023/03/03 04:53:51;;;;;;;;;;;;;;;17.97;64.95;101572.71;2185606;81;52421;-75
2023/03/03 04:56:53;;;;;;;;;;;;;;;17.96;64.94;101571.05;2186447;80;51142;-76
2023/03/03 04:59:55;;;;;;;;;;;;;;;17.92;65.08;101570.50;2195688;79;49935;-76
2023/03/03 05:02:56;;;;;;;;;;;;;;;17.91;65.05;101575.52;2184225;81;51509;-76
2023/03/03 05:05:58;;;;;;;;;;;;;;;17.87;65.20;101574.64;2209638;79;50030;-76
2023/03/03 05:08:59;;;;;;;;;;;;;;;17.86;65.32;101568.45;2209694;78;50153;-77
2023/03/03 05:12:01;;;;;;;;;;;;;;;17.79;65.61;101558.86;2209543;80;50398;-76
2023/03/03 05:15:03;;;;;;;;;;;;;;;17.77;65.67;101559.47;2209611;80;49486;-76
2023/03/03 05:18:04;;;;;;;;;;;;;;;17.80;65.56;101559.69;2209690;80;52391;-76
2023/03/03 05:21:06;;;;;;;;;;;;;;;17.85;65.42;101573.45;2209381;80;51485;-76
2023/03/03 05:24:08;;;;;;;;;;;;;;;17.92;65.26;101568.33;2184220;80;51465;-76
2023/03/03 05:27:10;;;;;;;;;;;;;;;18.00;65.09;101564.36;2206641;80;51515;-77
2023/03/03 05:30:12;;;;;;;;;;;;;;;18.05;64.89;101567.41;2199964;79;51152;-76
2023/03/03 05:33:14;;;;;;;;;;;;;;;18.05;64.84;101562.89;2184050;81;50479;-77
2023/03/03 05:36:16;;;;;;;;;;;;;;;18.04;65.01;101559.88;2184153;81;51491;-76
2023/03/03 05:39:17;;;;;;;;;;;;;;;18.08;64.88;101567.59;2183866;81;51543;-77
2023/03/03 05:42:19;;;;;;;;;;;;;;;18.05;64.91;101564.22;2209707;80;50130;-76
2023/03/03 05:45:23;;;;;;;;;;;;;;;18.03;64.84;101576.95;2209454;80;50712;-76
2023/03/03 05:48:24;;;;;;;;;;;;;;;18.00;64.92;101587.13;2184471;81;22665;-77
2023/03/03 05:51:25;;;;;;;;;;;;;;;17.98;64.97;101591.79;2209543;78;50436;-75
2023/03/03 05:54:27;;;;;;;;;;;;;;;17.93;65.17;101592.75;2209635;78;51147;-77
2023/03/03 05:57:29;;;;;;;;;;;;;;;17.91;65.19;101598.28;2201904;79;51517;-76
2023/03/03 06:00:30;;;;;;;;;;;;;;;17.95;65.10;101594.28;2198584;79;51450;-74
2023/03/03 06:03:32;;;;;;;;;;;;;;;18.00;64.98;101591.14;2172782;81;51489;-76
2023/03/03 06:06:33;;;;;;;;;;;;;;;18.02;64.77;101595.34;2172380;82;51140;-76
2023/03/03 06:09:35;;;;;;;;;;;;;;;18.11;64.25;101598.08;2172363;81;51581;-76
2023/03/03 06:12:37;;;;;;;;;;;;;;;18.08;64.09;101594.38;2196128;80;51503;-75
2023/03/03 06:15:39;;;;;;;;;;;;;;;18.08;63.94;101596.55;2189582;80;50428;-74
2023/03/03 06:18:41;;;;;;;;;;;;;;;18.04;63.81;101593.36;2162629;80;50048;-76
2023/03/03 06:21:42;;;;;;;;;;;;;;;18.02;63.64;101592.66;2173330;81;51501;-76
2023/03/03 06:24:44;;;;;;;;;;;;;;;18.03;63.42;101595.70;2173860;81;51532;-75
2023/03/03 06:27:45;;;;;;;;;;;;;;;17.95;63.62;101602.81;2159380;81;51470;-75
2023/03/03 06:30:47;;;;;;;;;;;;;;;17.93;63.63;101607.01;2194365;78;52324;-75
2023/03/03 06:33:50;;;;;;;;;;;;;;;17.97;63.44;101620.41;2195996;80;50421;-75
2023/03/03 06:36:51;;;;;;;;;;;;;;;18.00;63.26;101614.73;2171258;81;51572;-77
2023/03/03 06:39:53;;;;;;;;;;;;;;;18.09;62.93;101617.50;2172572;81;50722;-75
2023/03/03 06:42:55;;;;;;;;;;;;;;;18.19;62.66;101617.73;2176489;81;51083;-75
2023/03/03 06:45:56;;;;;;;;;;;;;;;18.19;62.61;101612.89;2196205;80;50561;-75
2023/03/03 06:48:58;;;;;;;;;;;;;;;18.19;62.68;101612.89;2196199;80;50405;-75
2023/03/03 06:52:00;;;;;;;;;;;;;;;18.21;62.62;101617.56;2172641;82;50548;-75
2023/03/03 06:55:04;;;;;;;;;;;;;;;18.14;62.74;101620.55;2175609;81;52349;-75
2023/03/03 06:58:07;;;;;;;;;;;;;;;18.14;62.77;101619.22;2177147;80;51525;-75
2023/03/03 07:01:10;;;;;;;;;;;;;;;18.10;62.93;101630.72;2194948;80;51027;-75
2023/03/03 07:04:13;;;;;;;;;;;;;;;18.10;62.92;101640.59;2165961;79;51547;-77
2023/03/03 07:07:16;;;;;;;;;;;;;;;18.09;62.93;101644.28;2139767;82;51101;-76
2023/03/03 07:10:19;;;;;;;;;;;;;;;18.05;63.02;101651.27;2174359;79;50745;-74
2023/03/03 07:13:22;;;;;;;;;;;;;;;18.09;62.84;101652.32;2150588;81;50441;-76
2023/03/03 07:16:25;;;;;;;;;;;;;;;18.11;62.61;101652.98;2150491;81;51474;-76
2023/03/03 07:19:31;;;;;;;;;;;;;;;18.16;62.32;101637.28;2151961;81;52367;-75
2023/03/03 07:22:33;;;;;;;;;;;;;;;18.20;62.29;101640.00;2150359;82;50377;-75
2023/03/03 07:25:35;;;;;;;;;;;;;;;18.20;62.30;101653.40;2150529;81;50731;-75
2023/03/03 07:28:36;;;;;;;;;;;;;;;18.27;62.25;101662.50;2160735;81;50444;-76
2023/03/03 07:31:39;;;;;;;;;;;;;;;18.27;62.71;101659.82;2150420;80;51156;-76
2023/03/03 07:34:42;;;;;;;;;;;;;;;18.20;62.89;101662.77;2185933;80;50410;-76
2023/03/03 07:37:44;;;;;;;;;;;;;;;18.09;63.49;101667.89;2150656;82;49400;-77
2023/03/03 07:40:47;;;;;;;;;;;;;;;18.01;63.81;101670.00;2150519;80;50732;-75
2023/03/03 07:43:53;;;;;;;;;;;;;;;17.95;64.03;101666.58;2163794;80;50905;-76
2023/03/03 07:46:55;;;;;;;;;;;;;;;17.91;64.22;101671.91;2186638;79;50385;-76
2023/03/03 07:50:00;;;;;;;;;;;;;;;17.90;64.28;101665.36;2166672;82;50734;-77
2023/03/03 07:53:01;;;;;;;;;;;;;;;17.86;64.34;101662.16;2159392;81;50428;-77
2023/03/03 07:56:05;;;;;;;;;;;;;;;17.83;64.45;101673.19;2181429;80;50252;-77
2023/03/03 07:59:08;;;;;;;;;;;;;;;17.86;64.43;101678.23;2167723;81;50467;-76
2023/03/03 08:02:11;;;;;;;;;;;;;;;17.88;64.39;101678.05;2184970;80;50276;-75
2023/03/03 08:05:14;;;;;;;;;;;;;;;17.93;64.09;101677.97;2185115;80;50400;-76
2023/03/03 08:08:29;;;;;;;;;;;;;;;17.98;63.84;101682.36;2185069;80;50463;-75
2023/03/03 08:11:31;;;;;;;;;;;;;;;17.98;63.81;101679.69;2209252;80;51512;-75
2023/03/03 08:14:36;;;;;;;;;;;;;;;17.98;63.78;101678.34;2159864;81;50417;-75
2023/03/03 08:17:38;;;;;;;;;;;;;;;17.95;64.09;101673.27;2144457;82;51641;-75
2023/03/03 08:20:46;;;;;;;;;;;;;;;17.86;64.41;101676.89;2154581;80;51666;-75
2023/03/03 08:23:50;;;;;;;;;;;;;;;17.81;64.64;101671.98;2176102;80;49618;-74
2023/03/03 08:26:52;;;;;;;;;;;;;;;17.84;64.83;101666.82;2184967;79;50542;-74
2023/03/03 08:29:53;;;;;;;;;;;;;;;17.89;64.65;101663.69;2158390;80;50437;-75
2023/03/03 08:32:55;;;;;;;;;;;;;;;17.89;64.71;101667.20;2165079;81;50765;-75
2023/03/03 08:35:56;;;;;;;;;;;;;;;17.89;64.72;101668.55;2173276;80;51685;-75
2023/03/03 08:38:58;;;;;;;;;;;;;;;17.90;64.71;101679.58;2204833;79;51985;-75
2023/03/03 08:42:00;;;;;;;;;;;;;;;17.91;64.69;101673.25;2169855;81;50784;-75
2023/03/03 08:45:01;;;;;;;;;;;;;;;17.96;64.67;101678.16;2157610;80;50054;-76
2023/03/03 08:48:03;;;;;;;;;;;;;;;17.98;64.48;101682.36;2188911;79;51695;-76
2023/03/03 08:51:05;;;;;;;;;;;;;;;18.00;64.41;101682.19;2152617;81;50395;-76
2023/03/03 08:54:07;;;;;;;;;;;;;;;18.01;64.33;101681.21;2167390;81;51539;-75
2023/03/03 08:57:08;;;;;;;;;;;;;;;18.02;64.25;101677.02;2181723;81;50499;-75
2023/03/03 09:00:11;;;;;;;;;;;;;;;18.02;64.26;101686.39;2197980;79;51175;-75
2023/03/03 09:03:12;;;;;;;;;;;;;;;18.01;64.21;101681.21;2178879;80;50401;-77
2023/03/03 09:06:14;;;;;;;;;;;;;;;18.00;64.22;101683.02;2156179;81;50548;-76
2023/03/03 09:09:16;;;;;;;;;;;;;;;17.99;64.18;101681.35;2184018;80;50205;-77
2023/03/03 09:12:18;;;;;;;;;;;;;;;17.98;64.20;101687.72;2143396;81;51699;-76
2023/03/03 09:15:21;;;;;;;;;;;;;;;17.99;64.17;101671.98;2171089;81;50474;-76
2023/03/03 09:18:25;;;;;;;;;;;;;;;18.01;64.17;101671.33;2174721;81;51487;-77
2023/03/03 09:21:28;;;;;;;;;;;;;;;18.02;64.15;101673.01;2172399;80;50782;-76
2023/03/03 09:24:30;;;;;;;;;;;;;;;18.04;64.12;101667.00;2162174;80;52466;-77
2023/03/03 09:27:33;;;;;;;;;;;;;;;18.05;64.01;101664.66;2162043;80;52468;-76
2023/03/03 09:30:38;;;;;;;;;;;;;;;18.07;64.03;101664.52;2172815;80;50171;-76
2023/03/03 09:33:42;;;;;;;;;;;;;;;18.08;64.01;101668.03;2178604;81;51522;-76
2023/03/03 09:36:43;;;;;;;;;;;;;;;18.07;63.87;101671.20;2148077;82;52551;-77
2023/03/03 09:39:45;;;;;;;;;;;;;;;18.06;63.90;101673.05;2195701;80;50913;-76
2023/03/03 09:42:51;;;;;;;;;;;;;;;18.05;63.80;101668.67;2169859;81;50512;-76
2023/03/03 09:46:09;;;;;;;;;;;;;;;18.04;63.84;101675.55;2153431;81;51551;-76
2023/03/03 09:49:16;;;;;;;;;;;;;;;18.02;63.80;101680.20;2145062;82;51151;-76
2023/03/03 09:52:19;;;;;;;;;;;;;;;17.99;63.67;101674.66;2173203;80;50798;-75
2023/03/03 09:55:31;;;;;;;;;;;;;;;17.98;63.76;101677.00;2168302;81;50761;-75
2023/03/03 09:58:44;;;;;;;;;;;;;;;18.00;63.79;101677.67;2172373;81;50820;-76
2023/03/03 10:01:56;;;;;;;;;;;;;;;18.04;63.70;101672.86;2158241;81;51050;-75
2023/03/03 10:05:06;;;;;;;;;;;;;;;18.08;63.60;101672.05;2158656;80;50779;-75
2023/03/03 10:08:14;;;;;;;;;;;;;;;18.09;63.46;101679.10;2153586;80;51258;-76
2023/03/03 10:11:23;;;;;;;;;;;;;;;18.09;63.46;101666.55;2184141;80;22198;-75
2023/03/03 10:14:32;;;;;;;;;;;;;;;18.09;63.40;101679.10;2211137;80;51156;-76
2023/03/03 10:17:35;;;;;;;;;;;;;;;18.08;63.44;101674.22;2159750;81;52392;-75
2023/03/03 10:20:46;;;;;;;;;;;;;;;18.07;63.44;101671.20;2142727;81;52387;-77
2023/03/03 10:23:49;;;;;;;;;;;;;;;18.05;63.42;101667.33;2175108;80;50777;-78
2023/03/03 10:26:53;;;;;;;;;;;;;;;18.05;63.39;101671.85;2167229;80;50116;-77
2023/03/03 10:29:59;;;;;;;;;;;;;;;18.04;63.37;101672.86;2150784;80;51674;-75
2023/03/03 10:33:01;;;;;;;;;;;;;;;18.04;63.40;101672.86;2137492;82;51542;-75
2023/03/03 10:36:04;;;;;;;;;;;;;;;18.03;63.33;101672.03;2151729;80;50776;-76
2023/03/03 10:39:26;;;;;;;;;;;;;;;18.05;63.34;101670.52;2167300;81;51717;-78
2023/03/03 10:42:29;;;;;;;;;;;;;;;18.08;63.28;101674.22;2149715;80;50595;-76
2023/03/03 10:45:48;;;;;;;;;;;;;;;18.08;63.22;101670.70;2175302;81;50462;-76
2023/03/03 10:48:57;;;;;;;;;;;;;;;18.08;62.83;101676.06;2161601;81;50818;-76
2023/03/03 10:52:01;;;;;;;;;;;;;;;18.08;62.63;101672.88;2156708;81;52566;-76
2023/03/03 10:55:16;;;;;;;;;;;;;;;18.06;62.44;101666.86;2183089;80;51594;-75
2023/03/03 10:58:34;;;;;;;;;;;;;;;18.05;62.45;101672.69;2164892;81;51481;-74
2023/03/03 11:01:49;;;;;;;;;;;;;;;18.05;62.39;101677.21;2149387;82;50530;-76
2023/03/03 11:04:53;;;;;;;;;;;;;;;18.00;62.47;101674.98;2152148;82;51271;-75
2023/03/03 11:08:00;;;;;;;;;;;;;;;17.97;62.85;101683.34;2149437;82;53995;-75
2023/03/03 11:11:09;;;;;;;;;;;;;;;17.95;62.77;101673.27;2148973;82;50441;-74
2023/03/03 11:14:12;;;;;;;;;;;;;;;17.96;62.68;101675.48;2150257;82;51528;-75
2023/03/03 11:17:27;;;;;;;;;;;;;;;18.00;62.40;101673.66;2152025;82;52663;-75
2023/03/03 11:20:30;;;;;;;;;;;;;;;18.09;62.10;101673.74;2150924;81;51481;-75
2023/03/03 11:23:36;;;;;;;;;;;;;;;18.10;61.97;101678.09;2149169;83;51508;-75
2023/03/03 11:26:40;;;;;;;;;;;;;;;18.08;61.95;101672.05;2151182;82;51517;-75
2023/03/03 11:29:55;;;;;;;;;;;;;;;18.08;61.88;101670.70;2164985;81;52445;-75
2023/03/03 11:32:59;;;;;;;;;;;;;;;18.02;62.01;101670.33;2184272;80;50837;-75
2023/03/03 11:36:10;;;;;;;;;;;;;;;17.97;62.10;101659.23;2184281;80;51509;-76
2023/03/03 11:39:13;;;;;;;;;;;;;;;17.93;62.15;101671.27;2183940;80;50780;-76
2023/03/03 11:42:17;;;;;;;;;;;;;;;17.90;62.35;101675.56;2209567;80;50679;-75
2023/03/03 11:45:19;;;;;;;;;;;;;;;17.84;62.88;101661.47;2184144;80;51553;-74
2023/03/03 11:48:22;;;;;;;;;;;;;;;17.80;62.76;101658.27;2184160;81;51566;-75
2023/03/03 11:51:26;;;;;;;;;;;;;;;17.82;62.42;101656.25;2184537;81;50797;-76
2023/03/03 11:54:32;;;;;;;;;;;;;;;17.92;62.14;101657.52;2163049;81;51250;-76
2023/03/03 11:57:47;;;;;;;;;;;;;;;18.01;61.82;101659.28;2176727;80;50464;-76
2023/03/03 12:00:52;;;;;;;;;;;;;;;18.11;61.47;101659.20;2159973;79;50492;-76
2023/03/03 12:03:57;;;;;;;;;;;;;;;18.19;61.14;101655.24;2150301;83;50775;-76
2023/03/03 12:07:06;;;;;;;;;;;;;;;18.22;61.00;101650.07;2151722;82;51244;-75
2023/03/03 12:10:16;;;;;;;;;;;;;;;18.22;60.90;101647.39;2150365;82;50778;-75
2023/03/03 12:13:19;;;;;;;;;;;;;;;18.15;61.07;101630.26;2150430;82;51518;-75
2023/03/03 12:16:31;;;;;;;;;;;;;;;18.13;61.02;101627.72;2150079;82;51503;-76
2023/03/03 12:19:37;;;;;;;;;;;;;;;18.08;61.24;101623.83;2151493;82;52450;-76
2023/03/03 12:22:41;;;;;;;;;;;;;;;17.98;61.57;101623.92;2150498;82;50406;-75
2023/03/03 12:25:43;;;;;;;;;;;;;;;17.87;61.81;101628.19;2150330;83;50544;-75
2023/03/03 12:28:54;;;;;;;;;;;;;;;17.88;61.87;101622.69;2159345;81;51504;-75
2023/03/03 12:32:04;;;;;;;;;;;;;;;17.90;61.66;101609.97;2184428;80;51581;-76
2023/03/03 12:35:13;;;;;;;;;;;;;;;17.97;61.45;101607.02;2184103;80;51510;-76
2023/03/03 12:38:28;;;;;;;;;;;;;;;18.13;61.02;101607.63;2184728;80;51578;-75
2023/03/03 12:41:40;;;;;;;;;;;;;;;18.20;60.76;101598.48;2183827;80;50496;-75
2023/03/03 12:44:53;;;;;;;;;;;;;;;18.29;60.43;101606.93;2175343;81;52430;-75
2023/03/03 12:47:56;;;;;;;;;;;;;;;18.36;60.17;101602.59;2184045;80;51517;-75
2023/03/03 12:51:14;;;;;;;;;;;;;;;18.31;60.23;101596.88;2183785;80;50469;-76
2023/03/03 12:54:27;;;;;;;;;;;;;;;18.28;60.26;101595.85;2184090;81;51525;-75
2023/03/03 12:57:32;;;;;;;;;;;;;;;18.25;60.38;101601.53;2181246;80;49655;-76
2023/03/03 13:00:39;;;;;;;;;;;;;;;18.17;60.52;101590.77;2175074;81;50547;-75
2023/03/03 13:03:42;;;;;;;;;;;;;;;18.13;60.58;101585.38;2184247;80;51535;-75
2023/03/03 13:06:54;;;;;;;;;;;;;;;18.02;60.89;101587.31;2183994;80;55431;-75
2023/03/03 13:10:15;;;;;;;;;;;;;;;17.97;61.06;101583.42;2162678;81;52394;-75
2023/03/03 13:13:37;;;;;;;;;;;;;;;18.01;60.95;101580.28;2183967;80;50473;-76
2023/03/03 13:16:40;;;;;;;;;;;;;;;18.11;60.62;101574.84;2184280;80;50792;-76
2023/03/03 13:19:43;;;;;;;;;;;;;;;18.24;60.32;101580.61;2183858;80;51578;-76
2023/03/03 13:22:49;;;;;;;;;;;;;;;18.31;60.12;101566.06;2175339;81;52530;-76
2023/03/03 13:25:57;;;;;;;;;;;;;;;18.35;59.91;101567.94;2184018;80;52177;-77
2023/03/03 13:29:01;;;;;;;;;;;;;;;18.29;60.00;101576.12;2175790;81;51541;-76
2023/03/03 13:32:07;;;;;;;;;;;;;;;18.27;60.04;101571.41;2157562;80;51581;-76
2023/03/03 13:35:09;;;;;;;;;;;;;;;18.22;60.09;101568.37;2129967;83;52340;-76
2023/03/03 13:38:13;;;;;;;;;;;;;;;18.19;60.13;101563.33;2150427;83;51637;-76
2023/03/03 13:41:28;;;;;;;;;;;;;;;18.14;60.30;101554.93;2149966;82;50766;-76
2023/03/03 13:44:37;;;;;;;;;;;;;;;18.12;60.32;101557.75;2150391;82;50451;-75
2023/03/03 13:47:41;;;;;;;;;;;;;;;18.00;60.54;101562.52;2152139;82;51663;-75
2023/03/03 13:50:56;;;;;;;;;;;;;;;17.96;60.75;101554.98;2149967;81;50771;-75
2023/03/03 13:54:05;;;;;;;;;;;;;;;17.99;60.61;101560.84;2149994;81;50756;-76
2023/03/03 13:57:25;;;;;;;;;;;;;;;18.11;60.34;101560.58;2150564;82;51533;-76
2023/03/03 14:00:28;;;;;;;;;;;;;;;18.23;60.03;101548.60;2183963;79;50857;-75
2023/03/03 14:03:48;;;;;;;;;;;;;;;18.27;59.78;101535.25;2149909;83;51523;-75
2023/03/03 14:06:51;;;;;;;;;;;;;;;18.29;59.73;101534.59;2150265;82;50466;-75
2023/03/03 14:09:54;;;;;;;;;;;;;;;18.33;59.55;101533.77;2150189;81;50230;-76
2023/03/03 14:12:57;;;;;;;;;;;;;;;18.33;59.50;101537.78;2151811;82;50075;-76
2023/03/03 14:16:01;;;;;;;;;;;;;;;18.27;59.52;101540.09;2129038;81;50812;-76
2023/03/03 14:19:03;;;;;;;;;;;;;;;18.17;59.92;101538.03;2117710;81;51708;-77
2023/03/03 14:22:24;;;;;;;;;;;;;;;18.16;60.02;101531.48;2125472;82;50438;-76
2023/03/03 14:25:26;;;;;;;;;;;;;;;18.03;60.63;101528.75;2118532;82;51699;-76
2023/03/03 14:28:28;;;;;;;;;;;;;;;17.99;60.86;101526.03;2147952;81;51506;-75
2023/03/03 14:31:30;;;;;;;;;;;;;;;17.97;60.83;101532.04;2174043;81;51615;-75
2023/03/03 14:34:37;;;;;;;;;;;;;;;17.96;60.68;101519.66;2209546;78;50479;-77
2023/03/03 14:37:42;;;;;;;;;;;;;;;17.99;60.47;101519.34;2209594;78;51180;-76
2023/03/03 14:40:44;;;;;;;;;;;;;;;18.09;60.20;101507.70;2183812;80;51559;-75
2023/03/03 14:43:47;;;;;;;;;;;;;;;18.18;59.85;101500.86;2184079;80;50512;-76
2023/03/03 14:47:07;;;;;;;;;;;;;;;18.24;59.65;101508.78;2185300;80;50801;-76
2023/03/03 14:50:10;;;;;;;;;;;;;;;18.20;59.68;101502.05;2209293;80;52399;-77
2023/03/03 14:53:14;;;;;;;;;;;;;;;18.17;59.94;101502.38;2187312;80;51504;-75
2023/03/03 14:56:25;;;;;;;;;;;;;;;18.09;60.44;101498.32;2167069;78;50795;-74
2023/03/03 14:59:26;;;;;;;;;;;;;;;18.10;60.32;101487.94;2168853;80;51521;-76
2023/03/03 15:02:29;;;;;;;;;;;;;;;18.13;60.33;101491.63;2156770;80;51489;-75
2023/03/03 15:05:31;;;;;;;;;;;;;;;18.06;60.46;101486.09;2158846;81;51535;-75
2023/03/03 15:08:33;;;;;;;;;;;;;;;17.99;60.68;101478.34;2158138;80;51357;-74
2023/03/03 15:11:35;;;;;;;;;;;;;;;17.94;60.76;101481.48;2181673;80;51555;-75
2023/03/03 15:14:41;;;;;;;;;;;;;;;17.97;61.10;101484.34;2154997;81;52381;-75
2023/03/03 15:17:44;;;;;;;;;;;;;;;18.05;60.81;101485.22;2155935;80;50181;-73
2023/03/03 15:21:03;;;;;;;;;;;;;;;18.12;60.71;101484.60;2153420;81;52167;-74
2023/03/03 15:24:09;;;;;;;;;;;;;;;18.14;60.88;101470.56;2155634;80;50490;-74
2023/03/03 15:27:13;;;;;;;;;;;;;;;18.13;60.58;101470.20;2135109;82;51720;-74
2023/03/03 15:30:16;;;;;;;;;;;;;;;18.11;60.97;101475.73;2168351;80;50386;-77
2023/03/03 15:33:19;;;;;;;;;;;;;;;18.12;60.79;101473.89;2138672;81;50212;-76
2023/03/03 15:36:25;;;;;;;;;;;;;;;18.13;61.03;101467.52;2113342;83;50487;-75
2023/03/03 15:39:31;;;;;;;;;;;;;;;18.09;61.24;101454.13;2105581;82;51547;-75
2023/03/03 15:42:35;;;;;;;;;;;;;;;18.01;61.33;101455.77;2105697;82;51666;-75
2023/03/03 15:45:54;;;;;;;;;;;;;;;17.95;61.41;101457.72;2104684;83;51581;-75